sensor_id;sensor_type;location;lat;lon;timestamp;temperature;humidity
83120;SHT31;73001;51.784;4.660;2023-11-21T00:01:15;8.54;81.15
83120;SHT31;73001;51.784;4.660;2023-11-21T00:03:40;8.59;81.15
83120;SHT31;73001;51.784;4.660;2023-11-21T00:06:06;8.60;81.05
83120;SHT31;73001;51.784;4.660;2023-11-21T00:08:34;8.60;81.21
83120;SHT31;73001;51.784;4.660;2023-11-21T00:11:00;8.61;81.30
83120;SHT31;73001;51.784;4.660;2023-11-21T00:13:26;8.64;81.39
83120;SHT31;73001;51.784;4.660;2023-11-21T00:15:52;8.67;81.26
83120;SHT31;73001;51.784;4.660;2023-11-21T00:18:17;8.68;81.27
83120;SHT31;73001;51.784;4.660;2023-11-21T00:20:43;8.71;81.18
83120;SHT31;73001;51.784;4.660;2023-11-21T00:23:08;8.68;80.99
83120;SHT31;73001;51.784;4.660;2023-11-21T00:25:34;8.67;80.92
83120;SHT31;73001;51.784;4.660;2023-11-21T00:28:00;8.57;81.29
83120;SHT31;73001;51.784;4.660;2023-11-21T00:30:27;8.57;81.42
83120;SHT31;73001;51.784;4.660;2023-11-21T00:32:54;8.60;80.77
83120;SHT31;73001;51.784;4.660;2023-11-21T00:35:19;8.60;80.78
83120;SHT31;73001;51.784;4.660;2023-11-21T00:37:45;8.57;80.63
83120;SHT31;73001;51.784;4.660;2023-11-21T00:40:12;8.54;80.55
83120;SHT31;73001;51.784;4.660;2023-11-21T00:42:37;8.42;81.82
83120;SHT31;73001;51.784;4.660;2023-11-21T00:45:03;8.26;82.22
83120;SHT31;73001;51.784;4.660;2023-11-21T00:47:29;8.30;82.55
83120;SHT31;73001;51.784;4.660;2023-11-21T00:49:54;8.39;81.91
83120;SHT31;73001;51.784;4.660;2023-11-21T00:52:20;8.40;81.79
83120;SHT31;73001;51.784;4.660;2023-11-21T00:54:46;8.42;81.71
83120;SHT31;73001;51.784;4.660;2023-11-21T00:57:11;8.39;82.49
83120;SHT31;73001;51.784;4.660;2023-11-21T00:59:37;8.47;82.37
83120;SHT31;73001;51.784;4.660;2023-11-21T01:02:02;8.59;82.40
83120;SHT31;73001;51.784;4.660;2023-11-21T01:04:30;8.66;82.20
83120;SHT31;73001;51.784;4.660;2023-11-21T01:06:57;8.70;82.28
83120;SHT31;73001;51.784;4.660;2023-11-21T01:09:22;8.78;82.45
83120;SHT31;73001;51.784;4.660;2023-11-21T01:11:48;8.87;82.29
83120;SHT31;73001;51.784;4.660;2023-11-21T01:14:13;8.92;81.82
83120;SHT31;73001;51.784;4.660;2023-11-21T01:16:38;9.01;81.86
83120;SHT31;73001;51.784;4.660;2023-11-21T01:19:04;9.11;81.98
83120;SHT31;73001;51.784;4.660;2023-11-21T01:21:29;9.24;82.10
83120;SHT31;73001;51.784;4.660;2023-11-21T01:23:56;9.26;82.30
83120;SHT31;73001;51.784;4.660;2023-11-21T01:26:21;9.35;82.23
83120;SHT31;73001;51.784;4.660;2023-11-21T01:28:47;9.36;82.60
83120;SHT31;73001;51.784;4.660;2023-11-21T01:31:15;9.42;82.78
83120;SHT31;73001;51.784;4.660;2023-11-21T01:33:40;9.38;83.03
83120;SHT31;73001;51.784;4.660;2023-11-21T01:36:06;9.52;82.43
83120;SHT31;73001;51.784;4.660;2023-11-21T01:38:32;9.56;82.38
83120;SHT31;73001;51.784;4.660;2023-11-21T01:40:57;9.59;82.32
83120;SHT31;73001;51.784;4.660;2023-11-21T01:43:23;9.60;82.72
83120;SHT31;73001;51.784;4.660;2023-11-21T01:45:49;9.53;83.05
83120;SHT31;73001;51.784;4.660;2023-11-21T01:48:14;9.62;82.79
83120;SHT31;73001;51.784;4.660;2023-11-21T01:50:42;9.75;82.22
83120;SHT31;73001;51.784;4.660;2023-11-21T01:53:08;9.79;82.20
83120;SHT31;73001;51.784;4.660;2023-11-21T01:55:34;9.82;81.95
83120;SHT31;73001;51.784;4.660;2023-11-21T01:58:00;9.83;81.91
83120;SHT31;73001;51.784;4.660;2023-11-21T02:00:26;9.87;81.91
83120;SHT31;73001;51.784;4.660;2023-11-21T02:02:54;9.89;82.05
83120;SHT31;73001;51.784;4.660;2023-11-21T02:05:20;9.91;81.91
83120;SHT31;73001;51.784;4.660;2023-11-21T02:07:47;9.96;81.78
83120;SHT31;73001;51.784;4.660;2023-11-21T02:10:18;9.98;81.75
83120;SHT31;73001;51.784;4.660;2023-11-21T02:12:48;9.98;81.91
83120;SHT31;73001;51.784;4.660;2023-11-21T02:15:18;10.03;81.96
83120;SHT31;73001;51.784;4.660;2023-11-21T02:17:49;10.00;82.47
83120;SHT31;73001;51.784;4.660;2023-11-21T02:20:20;10.07;81.99
83120;SHT31;73001;51.784;4.660;2023-11-21T02:22:56;10.10;81.97
83120;SHT31;73001;51.784;4.660;2023-11-21T02:25:28;10.14;81.86
83120;SHT31;73001;51.784;4.660;2023-11-21T02:27:56;10.17;81.86
83120;SHT31;73001;51.784;4.660;2023-11-21T02:30:23;10.17;81.99
83120;SHT31;73001;51.784;4.660;2023-11-21T02:32:50;10.20;81.91
83120;SHT31;73001;51.784;4.660;2023-11-21T02:35:18;10.24;81.89
83120;SHT31;73001;51.784;4.660;2023-11-21T02:37:46;10.25;81.66
83120;SHT31;73001;51.784;4.660;2023-11-21T02:40:12;10.25;81.75
83120;SHT31;73001;51.784;4.660;2023-11-21T02:42:39;10.25;81.62
83120;SHT31;73001;51.784;4.660;2023-11-21T02:45:07;10.30;81.67
83120;SHT31;73001;51.784;4.660;2023-11-21T02:47:33;10.27;81.74
83120;SHT31;73001;51.784;4.660;2023-11-21T02:49:59;10.28;81.66
83120;SHT31;73001;51.784;4.660;2023-11-21T02:52:24;10.33;81.51
83120;SHT31;73001;51.784;4.660;2023-11-21T02:54:50;10.30;81.77
83120;SHT31;73001;51.784;4.660;2023-11-21T02:57:15;10.24;82.44
83120;SHT31;73001;51.784;4.660;2023-11-21T02:59:41;10.28;82.50
83120;SHT31;73001;51.784;4.660;2023-11-21T03:02:06;10.37;81.82
83120;SHT31;73001;51.784;4.660;2023-11-21T03:04:34;10.38;81.61
83120;SHT31;73001;51.784;4.660;2023-11-21T03:07:00;10.41;81.75
83120;SHT31;73001;51.784;4.660;2023-11-21T03:09:25;10.40;81.56
83120;SHT31;73001;51.784;4.660;2023-11-21T03:11:52;10.42;81.61
83120;SHT31;73001;51.784;4.660;2023-11-21T03:14:18;10.42;81.66
83120;SHT31;73001;51.784;4.660;2023-11-21T03:16:43;10.42;81.70
83120;SHT31;73001;51.784;4.660;2023-11-21T03:19:11;10.44;81.51
83120;SHT31;73001;51.784;4.660;2023-11-21T03:21:36;10.45;81.43
83120;SHT31;73001;51.784;4.660;2023-11-21T03:24:02;10.36;82.40
83120;SHT31;73001;51.784;4.660;2023-11-21T03:26:28;10.31;82.67
83120;SHT31;73001;51.784;4.660;2023-11-21T03:28:55;10.44;81.92
83120;SHT31;73001;51.784;4.660;2023-11-21T03:31:20;10.49;81.81
83120;SHT31;73001;51.784;4.660;2023-11-21T03:33:46;10.48;81.69
83120;SHT31;73001;51.784;4.660;2023-11-21T03:36:12;10.48;81.72
83120;SHT31;73001;51.784;4.660;2023-11-21T03:38:40;10.51;81.57
83120;SHT31;73001;51.784;4.660;2023-11-21T03:41:05;10.54;81.65
83120;SHT31;73001;51.784;4.660;2023-11-21T03:43:31;10.54;81.59
83120;SHT31;73001;51.784;4.660;2023-11-21T03:45:57;10.55;81.71
83120;SHT31;73001;51.784;4.660;2023-11-21T03:48:22;10.61;81.71
83120;SHT31;73001;51.784;4.660;2023-11-21T03:50:48;10.64;81.68
83120;SHT31;73001;51.784;4.660;2023-11-21T03:53:14;10.64;81.76
83120;SHT31;73001;51.784;4.660;2023-11-21T03:55:39;10.69;81.73
83120;SHT31;73001;51.784;4.660;2023-11-21T03:58:05;10.68;81.70
83120;SHT31;73001;51.784;4.660;2023-11-21T04:00:30;10.68;81.65
83120;SHT31;73001;51.784;4.660;2023-11-21T04:02:56;10.72;81.63
83120;SHT31;73001;51.784;4.660;2023-11-21T04:05:23;10.73;81.52
83120;SHT31;73001;51.784;4.660;2023-11-21T04:07:51;10.78;81.59
83120;SHT31;73001;51.784;4.660;2023-11-21T04:10:17;10.76;82.20
83120;SHT31;73001;51.784;4.660;2023-11-21T04:12:42;10.73;82.38
83120;SHT31;73001;51.784;4.660;2023-11-21T04:15:08;10.80;82.01
83120;SHT31;73001;51.784;4.660;2023-11-21T04:17:34;10.82;81.85
83120;SHT31;73001;51.784;4.660;2023-11-21T04:20:00;10.85;81.82
83120;SHT31;73001;51.784;4.660;2023-11-21T04:22:26;10.88;81.91
83120;SHT31;73001;51.784;4.660;2023-11-21T04:24:51;10.89;81.83
83120;SHT31;73001;51.784;4.660;2023-11-21T04:27:16;10.91;81.73
83120;SHT31;73001;51.784;4.660;2023-11-21T04:29:43;10.92;81.67
83120;SHT31;73001;51.784;4.660;2023-11-21T04:32:09;10.96;81.55
83120;SHT31;73001;51.784;4.660;2023-11-21T04:34:35;10.98;81.41
83120;SHT31;73001;51.784;4.660;2023-11-21T04:37:00;10.99;81.50
83120;SHT31;73001;51.784;4.660;2023-11-21T04:39:26;11.03;82.04
83120;SHT31;73001;51.784;4.660;2023-11-21T04:41:52;11.09;81.88
83120;SHT31;73001;51.784;4.660;2023-11-21T04:44:17;11.10;82.15
83120;SHT31;73001;51.784;4.660;2023-11-21T04:46:43;11.13;82.63
83120;SHT31;73001;51.784;4.660;2023-11-21T04:49:08;11.22;82.11
83120;SHT31;73001;51.784;4.660;2023-11-21T04:51:36;11.24;81.88
83120;SHT31;73001;51.784;4.660;2023-11-21T04:54:01;11.27;82.26
83120;SHT31;73001;51.784;4.660;2023-11-21T04:56:27;11.31;82.26
83120;SHT31;73001;51.784;4.660;2023-11-21T04:58:54;11.33;82.23
83120;SHT31;73001;51.784;4.660;2023-11-21T05:01:19;11.37;82.48
83120;SHT31;73001;51.784;4.660;2023-11-21T05:03:45;11.37;82.08
83120;SHT31;73001;51.784;4.660;2023-11-21T05:06:12;11.36;82.09
83120;SHT31;73001;51.784;4.660;2023-11-21T05:08:37;11.36;82.00
83120;SHT31;73001;51.784;4.660;2023-11-21T05:11:03;11.36;82.07
83120;SHT31;73001;51.784;4.660;2023-11-21T05:13:28;11.37;82.35
83120;SHT31;73001;51.784;4.660;2023-11-21T05:15:54;11.41;82.94
83120;SHT31;73001;51.784;4.660;2023-11-21T05:18:22;11.44;82.36
83120;SHT31;73001;51.784;4.660;2023-11-21T05:20:47;11.46;82.33
83120;SHT31;73001;51.784;4.660;2023-11-21T05:23:13;11.46;82.28
83120;SHT31;73001;51.784;4.660;2023-11-21T05:25:38;11.44;82.11
83120;SHT31;73001;51.784;4.660;2023-11-21T05:28:04;11.46;82.21
83120;SHT31;73001;51.784;4.660;2023-11-21T05:30:29;11.49;82.24
83120;SHT31;73001;51.784;4.660;2023-11-21T05:32:55;11.47;82.09
83120;SHT31;73001;51.784;4.660;2023-11-21T05:35:20;11.49;82.04
83120;SHT31;73001;51.784;4.660;2023-11-21T05:37:46;11.54;82.20
83120;SHT31;73001;51.784;4.660;2023-11-21T05:40:12;11.53;82.14
83120;SHT31;73001;51.784;4.660;2023-11-21T05:42:39;11.54;82.20
83120;SHT31;73001;51.784;4.660;2023-11-21T05:45:07;11.60;81.98
83120;SHT31;73001;51.784;4.660;2023-11-21T05:47:44;11.61;82.11
83120;SHT31;73001;51.784;4.660;2023-11-21T05:50:13;11.63;81.85
83120;SHT31;73001;51.784;4.660;2023-11-21T05:52:41;11.66;82.11
83120;SHT31;73001;51.784;4.660;2023-11-21T05:55:07;11.68;82.06
83120;SHT31;73001;51.784;4.660;2023-11-21T05:57:36;11.67;82.00
83120;SHT31;73001;51.784;4.660;2023-11-21T06:00:11;11.67;81.86
83120;SHT31;73001;51.784;4.660;2023-11-21T06:02:39;11.73;81.91
83120;SHT31;73001;51.784;4.660;2023-11-21T06:05:08;11.73;82.55
83120;SHT31;73001;51.784;4.660;2023-11-21T06:07:34;11.71;83.20
83120;SHT31;73001;51.784;4.660;2023-11-21T06:10:04;11.74;82.93
83120;SHT31;73001;51.784;4.660;2023-11-21T06:12:35;11.80;82.34
83120;SHT31;73001;51.784;4.660;2023-11-21T06:15:04;11.78;82.08
83120;SHT31;73001;51.784;4.660;2023-11-21T06:17:34;11.75;82.03
83120;SHT31;73001;51.784;4.660;2023-11-21T06:20:04;11.75;82.09
83120;SHT31;73001;51.784;4.660;2023-11-21T06:22:38;11.78;81.87
83120;SHT31;73001;51.784;4.660;2023-11-21T06:25:05;11.77;81.79
83120;SHT31;73001;51.784;4.660;2023-11-21T06:27:37;11.75;81.61
83120;SHT31;73001;51.784;4.660;2023-11-21T06:30:03;11.73;81.61
83120;SHT31;73001;51.784;4.660;2023-11-21T06:32:29;11.70;81.61
83120;SHT31;73001;51.784;4.660;2023-11-21T06:34:58;11.66;81.75
83120;SHT31;73001;51.784;4.660;2023-11-21T06:37:28;11.66;81.67
83120;SHT31;73001;51.784;4.660;2023-11-21T06:39:54;11.64;81.75
83120;SHT31;73001;51.784;4.660;2023-11-21T06:42:19;11.66;81.70
83120;SHT31;73001;51.784;4.660;2023-11-21T06:44:46;11.63;81.61
83120;SHT31;73001;51.784;4.660;2023-11-21T06:47:11;11.64;81.52
83120;SHT31;73001;51.784;4.660;2023-11-21T06:49:37;11.61;81.63
83120;SHT31;73001;51.784;4.660;2023-11-21T06:52:04;11.61;81.59
83120;SHT31;73001;51.784;4.660;2023-11-21T06:54:31;11.63;81.62
83120;SHT31;73001;51.784;4.660;2023-11-21T06:56:58;11.61;81.64
83120;SHT31;73001;51.784;4.660;2023-11-21T06:59:23;11.63;81.87
83120;SHT31;73001;51.784;4.660;2023-11-21T07:01:50;11.63;81.94
83120;SHT31;73001;51.784;4.660;2023-11-21T07:04:15;11.71;82.08
83120;SHT31;73001;51.784;4.660;2023-11-21T07:06:41;11.66;81.86
83120;SHT31;73001;51.784;4.660;2023-11-21T07:09:07;11.64;81.94
83120;SHT31;73001;51.784;4.660;2023-11-21T07:11:34;11.70;82.50
83120;SHT31;73001;51.784;4.660;2023-11-21T07:14:00;11.68;82.00
83120;SHT31;73001;51.784;4.660;2023-11-21T07:16:27;11.64;81.73
83120;SHT31;73001;51.784;4.660;2023-11-21T07:18:55;11.59;81.46
83120;SHT31;73001;51.784;4.660;2023-11-21T07:21:21;11.53;81.25
83120;SHT31;73001;51.784;4.660;2023-11-21T07:23:46;11.40;81.33
83120;SHT31;73001;51.784;4.660;2023-11-21T07:26:11;11.36;81.33
83120;SHT31;73001;51.784;4.660;2023-11-21T07:28:37;11.22;81.35
83120;SHT31;73001;51.784;4.660;2023-11-21T07:31:03;11.23;81.58
83120;SHT31;73001;51.784;4.660;2023-11-21T07:33:28;11.24;81.79
83120;SHT31;73001;51.784;4.660;2023-11-21T07:35:54;11.24;81.98
83120;SHT31;73001;51.784;4.660;2023-11-21T07:38:19;11.26;82.00
83120;SHT31;73001;51.784;4.660;2023-11-21T07:40:45;11.29;82.00
83120;SHT31;73001;51.784;4.660;2023-11-21T07:43:10;11.29;82.10
83120;SHT31;73001;51.784;4.660;2023-11-21T07:45:36;11.36;82.07
83120;SHT31;73001;51.784;4.660;2023-11-21T07:48:01;11.36;82.12
83120;SHT31;73001;51.784;4.660;2023-11-21T07:50:29;11.41;82.31
83120;SHT31;73001;51.784;4.660;2023-11-21T07:52:54;11.43;82.63
83120;SHT31;73001;51.784;4.660;2023-11-21T07:55:20;11.49;82.83
83120;SHT31;73001;51.784;4.660;2023-11-21T07:57:45;11.53;82.92
83120;SHT31;73001;51.784;4.660;2023-11-21T08:00:11;11.59;82.82
83120;SHT31;73001;51.784;4.660;2023-11-21T08:02:38;11.64;83.18
83120;SHT31;73001;51.784;4.660;2023-11-21T08:05:05;11.71;83.04
83120;SHT31;73001;51.784;4.660;2023-11-21T08:07:33;11.71;83.40
83120;SHT31;73001;51.784;4.660;2023-11-21T08:09:58;11.80;83.48
83120;SHT31;73001;51.784;4.660;2023-11-21T08:12:24;11.84;83.44
83120;SHT31;73001;51.784;4.660;2023-11-21T08:14:49;11.91;83.38
83120;SHT31;73001;51.784;4.660;2023-11-21T08:17:15;11.97;83.26
83120;SHT31;73001;51.784;4.660;2023-11-21T08:19:40;11.99;83.01
83120;SHT31;73001;51.784;4.660;2023-11-21T08:22:06;12.02;83.25
83120;SHT31;73001;51.784;4.660;2023-11-21T08:24:33;12.08;83.09
83120;SHT31;73001;51.784;4.660;2023-11-21T08:26:58;12.17;82.79
83120;SHT31;73001;51.784;4.660;2023-11-21T08:29:24;12.21;82.69
83120;SHT31;73001;51.784;4.660;2023-11-21T08:31:49;12.22;82.60
83120;SHT31;73001;51.784;4.660;2023-11-21T08:34:15;12.21;82.53
83120;SHT31;73001;51.784;4.660;2023-11-21T08:36:44;12.25;82.56
83120;SHT31;73001;51.784;4.660;2023-11-21T08:39:10;12.28;82.35
83120;SHT31;73001;51.784;4.660;2023-11-21T08:41:35;12.26;82.49
83120;SHT31;73001;51.784;4.660;2023-11-21T08:44:02;12.31;82.49
83120;SHT31;73001;51.784;4.660;2023-11-21T08:46:32;12.32;82.60
83120;SHT31;73001;51.784;4.660;2023-11-21T08:49:00;12.35;82.55
83120;SHT31;73001;51.784;4.660;2023-11-21T08:51:26;12.38;82.48
83120;SHT31;73001;51.784;4.660;2023-11-21T08:53:51;12.38;82.29
83120;SHT31;73001;51.784;4.660;2023-11-21T08:56:17;12.41;82.44
83120;SHT31;73001;51.784;4.660;2023-11-21T08:58:43;12.38;82.62
83120;SHT31;73001;51.784;4.660;2023-11-21T09:01:09;12.42;82.60
83120;SHT31;73001;51.784;4.660;2023-11-21T09:03:35;12.46;82.47
83120;SHT31;73001;51.784;4.660;2023-11-21T09:06:00;12.52;82.37
83120;SHT31;73001;51.784;4.660;2023-11-21T09:08:26;12.49;82.35
83120;SHT31;73001;51.784;4.660;2023-11-21T09:10:53;12.50;82.81
83120;SHT31;73001;51.784;4.660;2023-11-21T09:13:19;12.56;82.69
83120;SHT31;73001;51.784;4.660;2023-11-21T09:15:44;12.60;82.51
83120;SHT31;73001;51.784;4.660;2023-11-21T09:18:14;12.64;82.61
83120;SHT31;73001;51.784;4.660;2023-11-21T09:20:40;12.75;83.00
83120;SHT31;73001;51.784;4.660;2023-11-21T09:23:06;12.84;82.94
83120;SHT31;73001;51.784;4.660;2023-11-21T09:25:32;12.93;82.73
83120;SHT31;73001;51.784;4.660;2023-11-21T09:27:58;13.03;82.64
83120;SHT31;73001;51.784;4.660;2023-11-21T09:30:23;13.11;82.38
83120;SHT31;73001;51.784;4.660;2023-11-21T09:32:50;13.22;82.44
83120;SHT31;73001;51.784;4.660;2023-11-21T09:35:16;13.30;82.31
83120;SHT31;73001;51.784;4.660;2023-11-21T09:37:45;13.28;82.19
83120;SHT31;73001;51.784;4.660;2023-11-21T09:40:11;13.30;82.04
83120;SHT31;73001;51.784;4.660;2023-11-21T09:42:40;13.30;81.78
83120;SHT31;73001;51.784;4.660;2023-11-21T09:45:23;13.25;81.80
83120;SHT31;73001;51.784;4.660;2023-11-21T09:47:52;13.22;81.78
83120;SHT31;73001;51.784;4.660;2023-11-21T09:50:20;13.17;81.54
83120;SHT31;73001;51.784;4.660;2023-11-21T09:55:18;13.18;81.44
83120;SHT31;73001;51.784;4.660;2023-11-21T09:57:47;13.13;81.68
83120;SHT31;73001;51.784;4.660;2023-11-21T10:00:14;13.11;81.86
83120;SHT31;73001;51.784;4.660;2023-11-21T10:02:43;13.11;81.89
83120;SHT31;73001;51.784;4.660;2023-11-21T10:05:09;13.10;81.82
83120;SHT31;73001;51.784;4.660;2023-11-21T10:07:39;13.06;81.94
83120;SHT31;73001;51.784;4.660;2023-11-21T10:10:07;13.08;81.91
83120;SHT31;73001;51.784;4.660;2023-11-21T10:12:35;13.17;81.83
83120;SHT31;73001;51.784;4.660;2023-11-21T10:15:02;13.15;82.28
83120;SHT31;73001;51.784;4.660;2023-11-21T10:17:31;13.28;82.12
83120;SHT31;73001;51.784;4.660;2023-11-21T10:20:05;13.31;81.23
83120;SHT31;73001;51.784;4.660;2023-11-21T10:22:38;13.40;81.21
83120;SHT31;73001;51.784;4.660;2023-11-21T10:25:06;13.41;80.68
83120;SHT31;73001;51.784;4.660;2023-11-21T10:27:34;13.48;81.16
83120;SHT31;73001;51.784;4.660;2023-11-21T10:30:03;13.54;80.51
83120;SHT31;73001;51.784;4.660;2023-11-21T10:32:31;13.54;80.03
83120;SHT31;73001;51.784;4.660;2023-11-21T10:34:59;13.48;79.97
83120;SHT31;73001;51.784;4.660;2023-11-21T10:37:32;13.47;80.15
83120;SHT31;73001;51.784;4.660;2023-11-21T10:40:01;13.47;80.19
83120;SHT31;73001;51.784;4.660;2023-11-21T10:42:27;13.40;80.23
83120;SHT31;73001;51.784;4.660;2023-11-21T10:44:55;13.34;81.02
83120;SHT31;73001;51.784;4.660;2023-11-21T10:47:21;13.35;80.91
83120;SHT31;73001;51.784;4.660;2023-11-21T10:49:51;13.38;80.66
83120;SHT31;73001;51.784;4.660;2023-11-21T10:52:21;13.37;80.84
83120;SHT31;73001;51.784;4.660;2023-11-21T10:54:47;13.30;80.54
83120;SHT31;73001;51.784;4.660;2023-11-21T10:57:18;13.28;80.54
83120;SHT31;73001;51.784;4.660;2023-11-21T10:59:47;13.25;80.65
83120;SHT31;73001;51.784;4.660;2023-11-21T11:02:23;13.18;79.84
83120;SHT31;73001;51.784;4.660;2023-11-21T11:04:53;13.21;79.74
83120;SHT31;73001;51.784;4.660;2023-11-21T11:07:25;13.08;80.24
83120;SHT31;73001;51.784;4.660;2023-11-21T11:09:53;13.03;80.01
83120;SHT31;73001;51.784;4.660;2023-11-21T11:12:19;12.97;80.09
83120;SHT31;73001;51.784;4.660;2023-11-21T11:14:45;12.93;80.22
83120;SHT31;73001;51.784;4.660;2023-11-21T11:17:10;12.90;80.34
83120;SHT31;73001;51.784;4.660;2023-11-21T11:19:36;12.90;80.17
83120;SHT31;73001;51.784;4.660;2023-11-21T11:28:02;13.04;79.88
83120;SHT31;73001;51.784;4.660;2023-11-21T11:30:58;12.94;79.82
83120;SHT31;73001;51.784;4.660;2023-11-21T11:33:39;12.97;79.84
83120;SHT31;73001;51.784;4.660;2023-11-21T11:38:53;12.89;79.48
83120;SHT31;73001;51.784;4.660;2023-11-21T11:41:31;12.80;79.53
83120;SHT31;73001;51.784;4.660;2023-11-21T11:44:03;12.77;79.38
83120;SHT31;73001;51.784;4.660;2023-11-21T11:46:43;12.70;79.32
83120;SHT31;73001;51.784;4.660;2023-11-21T11:49:10;12.64;80.00
83120;SHT31;73001;51.784;4.660;2023-11-21T11:51:36;12.60;80.37
83120;SHT31;73001;51.784;4.660;2023-11-21T11:54:02;12.63;80.36
83120;SHT31;73001;51.784;4.660;2023-11-21T11:56:30;12.64;80.20
83120;SHT31;73001;51.784;4.660;2023-11-21T11:59:00;12.56;80.02
83120;SHT31;73001;51.784;4.660;2023-11-21T12:01:29;12.59;80.17
83120;SHT31;73001;51.784;4.660;2023-11-21T12:07:00;12.59;80.31
83120;SHT31;73001;51.784;4.660;2023-11-21T12:09:30;12.53;80.32
83120;SHT31;73001;51.784;4.660;2023-11-21T12:11:57;12.52;80.89
83120;SHT31;73001;51.784;4.660;2023-11-21T12:14:23;12.53;80.79
83120;SHT31;73001;51.784;4.660;2023-11-21T12:16:48;12.57;80.76
83120;SHT31;73001;51.784;4.660;2023-11-21T12:19:14;12.55;80.58
83120;SHT31;73001;51.784;4.660;2023-11-21T12:21:43;12.53;80.93
83120;SHT31;73001;51.784;4.660;2023-11-21T12:24:09;12.55;80.81
83120;SHT31;73001;51.784;4.660;2023-11-21T12:26:37;12.52;81.00
83120;SHT31;73001;51.784;4.660;2023-11-21T12:29:02;12.48;80.84
83120;SHT31;73001;51.784;4.660;2023-11-21T12:31:30;12.50;81.30
83120;SHT31;73001;51.784;4.660;2023-11-21T12:33:56;12.55;80.89
83120;SHT31;73001;51.784;4.660;2023-11-21T12:36:23;12.56;80.65
83120;SHT31;73001;51.784;4.660;2023-11-21T12:38:49;12.55;80.85
83120;SHT31;73001;51.784;4.660;2023-11-21T12:41:16;12.56;80.93
83120;SHT31;73001;51.784;4.660;2023-11-21T12:43:43;12.52;80.79
83120;SHT31;73001;51.784;4.660;2023-11-21T12:46:10;12.49;80.87
83120;SHT31;73001;51.784;4.660;2023-11-21T12:48:41;12.46;80.82
83120;SHT31;73001;51.784;4.660;2023-11-21T12:51:10;12.46;81.30
83120;SHT31;73001;51.784;4.660;2023-11-21T12:53:44;12.45;81.16
83120;SHT31;73001;51.784;4.660;2023-11-21T12:56:13;12.48;81.13
83120;SHT31;73001;51.784;4.660;2023-11-21T12:58:40;12.52;80.91
83120;SHT31;73001;51.784;4.660;2023-11-21T13:01:10;12.42;81.05
83120;SHT31;73001;51.784;4.660;2023-11-21T13:03:39;12.46;81.22
83120;SHT31;73001;51.784;4.660;2023-11-21T13:06:06;12.52;81.22
83120;SHT31;73001;51.784;4.660;2023-11-21T13:08:33;12.50;81.28
83120;SHT31;73001;51.784;4.660;2023-11-21T13:10:59;12.52;80.77
83120;SHT31;73001;51.784;4.660;2023-11-21T13:13:28;12.56;80.70
83120;SHT31;73001;51.784;4.660;2023-11-21T13:16:03;12.59;80.54
83120;SHT31;73001;51.784;4.660;2023-11-21T13:18:29;12.62;80.56
83120;SHT31;73001;51.784;4.660;2023-11-21T13:21:02;12.63;80.56
83120;SHT31;73001;51.784;4.660;2023-11-21T13:23:36;12.56;80.62
83120;SHT31;73001;51.784;4.660;2023-11-21T13:26:02;12.53;80.96
83120;SHT31;73001;51.784;4.660;2023-11-21T13:28:29;12.56;80.98
83120;SHT31;73001;51.784;4.660;2023-11-21T13:30:59;12.62;80.58
83120;SHT31;73001;51.784;4.660;2023-11-21T13:33:49;12.60;80.79
83120;SHT31;73001;51.784;4.660;2023-11-21T13:36:21;12.62;79.96
83120;SHT31;73001;51.784;4.660;2023-11-21T13:38:51;12.59;80.53
83120;SHT31;73001;51.784;4.660;2023-11-21T13:41:20;12.56;80.27
83120;SHT31;73001;51.784;4.660;2023-11-21T13:43:47;12.53;80.57
83120;SHT31;73001;51.784;4.660;2023-11-21T13:46:22;12.53;80.59
83120;SHT31;73001;51.784;4.660;2023-11-21T13:48:49;12.56;80.49
83120;SHT31;73001;51.784;4.660;2023-11-21T13:51:22;12.48;80.32
83120;SHT31;73001;51.784;4.660;2023-11-21T13:53:55;12.52;80.40
83120;SHT31;73001;51.784;4.660;2023-11-21T13:56:21;12.56;80.09
83120;SHT31;73001;51.784;4.660;2023-11-21T13:58:51;12.49;80.32
83120;SHT31;73001;51.784;4.660;2023-11-21T14:01:21;12.49;80.36
83120;SHT31;73001;51.784;4.660;2023-11-21T14:03:56;12.52;80.43
83120;SHT31;73001;51.784;4.660;2023-11-21T14:06:28;12.53;79.93
83120;SHT31;73001;51.784;4.660;2023-11-21T14:09:02;12.53;80.13
83120;SHT31;73001;51.784;4.660;2023-11-21T14:11:31;12.52;80.30
83120;SHT31;73001;51.784;4.660;2023-11-21T14:13:56;12.56;80.36
83120;SHT31;73001;51.784;4.660;2023-11-21T14:16:24;12.53;80.00
83120;SHT31;73001;51.784;4.660;2023-11-21T14:18:50;12.49;80.03
83120;SHT31;73001;51.784;4.660;2023-11-21T14:21:24;12.43;80.43
83120;SHT31;73001;51.784;4.660;2023-11-21T14:23:49;12.48;80.29
83120;SHT31;73001;51.784;4.660;2023-11-21T14:26:15;12.50;80.25
83120;SHT31;73001;51.784;4.660;2023-11-21T14:28:42;12.45;80.14
83120;SHT31;73001;51.784;4.660;2023-11-21T14:31:08;12.49;79.73
83120;SHT31;73001;51.784;4.660;2023-11-21T14:33:40;12.46;79.66
83120;SHT31;73001;51.784;4.660;2023-11-21T14:36:07;12.43;80.07
83120;SHT31;73001;51.784;4.660;2023-11-21T14:38:36;12.42;79.99
83120;SHT31;73001;51.784;4.660;2023-11-21T14:41:04;12.36;80.54
83120;SHT31;73001;51.784;4.660;2023-11-21T14:43:32;12.32;80.46
83120;SHT31;73001;51.784;4.660;2023-11-21T14:46:01;12.29;80.78
83120;SHT31;73001;51.784;4.660;2023-11-21T14:48:27;12.31;80.85
83120;SHT31;73001;51.784;4.660;2023-11-21T14:51:08;12.31;81.01
83120;SHT31;73001;51.784;4.660;2023-11-21T14:53:52;12.25;81.09
83120;SHT31;73001;51.784;4.660;2023-11-21T14:56:24;12.21;80.98
83120;SHT31;73001;51.784;4.660;2023-11-21T14:58:57;12.21;80.50
83120;SHT31;73001;51.784;4.660;2023-11-21T15:01:23;12.18;80.65
83120;SHT31;73001;51.784;4.660;2023-11-21T15:04:08;12.21;80.83
83120;SHT31;73001;51.784;4.660;2023-11-21T15:06:40;12.17;80.78
83120;SHT31;73001;51.784;4.660;2023-11-21T15:09:08;12.12;80.77
83120;SHT31;73001;51.784;4.660;2023-11-21T15:11:53;12.12;80.72
83120;SHT31;73001;51.784;4.660;2023-11-21T15:14:23;12.04;80.87
83120;SHT31;73001;51.784;4.660;2023-11-21T15:16:51;12.02;80.95
83120;SHT31;73001;51.784;4.660;2023-11-21T15:19:18;12.06;81.01
83120;SHT31;73001;51.784;4.660;2023-11-21T15:21:50;12.02;80.98
83120;SHT31;73001;51.784;4.660;2023-11-21T15:24:15;11.98;80.73
83120;SHT31;73001;51.784;4.660;2023-11-21T15:26:41;11.95;80.83
83120;SHT31;73001;51.784;4.660;2023-11-21T15:29:06;11.92;81.17
83120;SHT31;73001;51.784;4.660;2023-11-21T15:31:33;11.97;80.99
83120;SHT31;73001;51.784;4.660;2023-11-21T15:33:58;11.97;81.10
83120;SHT31;73001;51.784;4.660;2023-11-21T15:36:26;11.97;80.70
83120;SHT31;73001;51.784;4.660;2023-11-21T15:38:53;11.91;80.86
83120;SHT31;73001;51.784;4.660;2023-11-21T15:41:19;11.90;80.81
83120;SHT31;73001;51.784;4.660;2023-11-21T15:43:44;11.94;80.34
83120;SHT31;73001;51.784;4.660;2023-11-21T15:46:10;11.90;80.51
83120;SHT31;73001;51.784;4.660;2023-11-21T15:48:36;11.90;80.70